createdAt,value
2023-05-01T00:04:24.568Z,1.3
2023-05-01T00:10:44.537Z,1.3
2023-05-01T00:17:07.559Z,2.3
2023-05-01T00:23:27.492Z,2.3
2023-05-01T00:29:50.539Z,3.8
2023-05-01T00:36:10.550Z,3.8
2023-05-01T00:42:33.504Z,2.8
2023-05-01T00:48:53.489Z,2.8
2023-05-01T00:55:16.581Z,2.7
2023-05-01T01:01:36.547Z,2.7
2023-05-01T01:07:59.585Z,2.8
2023-05-01T01:14:19.530Z,2.8
2023-05-01T01:20:42.523Z,2.7
2023-05-01T01:27:02.543Z,2.7
2023-05-01T01:33:25.821Z,2.8
2023-05-01T01:39:45.512Z,2.8
2023-05-01T01:46:08.620Z,2.7
2023-05-01T01:52:28.632Z,2.7
2023-05-01T01:58:51.593Z,2.6
2023-05-01T02:05:11.473Z,2.6
2023-05-01T02:11:34.649Z,1.8
2023-05-01T02:17:54.536Z,1.8
2023-05-01T02:24:17.618Z,3.6
2023-05-01T02:30:37.522Z,3.6
2023-05-01T02:37:00.533Z,1.8
2023-05-01T02:43:20.505Z,1.8
2023-05-01T02:49:43.555Z,2.5
2023-05-01T02:56:03.558Z,2.5
2023-05-01T03:02:26.557Z,1.4
2023-05-01T03:08:46.543Z,1.4
2023-05-01T03:15:09.502Z,2.2
2023-05-01T03:21:29.563Z,2.2
2023-05-01T03:27:54.336Z,2.4
2023-05-01T03:52:03.705Z,2.3
2023-05-01T03:58:23.484Z,2.3
2023-05-01T04:04:46.555Z,2.7
2023-05-01T04:11:06.550Z,2.7
2023-05-01T04:17:29.514Z,1.5
2023-05-01T04:23:49.562Z,1.5
2023-05-01T04:30:12.713Z,2.8
2023-05-01T04:36:32.540Z,2.8
2023-05-01T04:42:55.515Z,2.4
2023-05-01T04:49:15.873Z,2.4
2023-05-01T04:55:38.565Z,3.1
2023-05-01T05:01:58.606Z,3.1
2023-05-01T05:08:21.632Z,2.9
2023-05-01T05:14:41.530Z,2.9
2023-05-01T05:21:04.519Z,2.9
2023-05-01T05:27:24.600Z,2.9
2023-05-01T05:33:47.534Z,4
2023-05-01T05:40:07.549Z,4
2023-05-01T05:46:30.575Z,1.5
2023-05-01T05:52:50.471Z,1.5
2023-05-01T05:59:14.836Z,1.4
2023-05-01T06:05:33.666Z,1.4
2023-05-01T06:11:56.525Z,2.7
2023-05-01T06:18:16.694Z,2.7
2023-05-01T06:24:39.556Z,1.5
2023-05-01T06:30:59.559Z,1.5
2023-05-01T06:37:22.537Z,2
2023-05-01T06:43:42.621Z,2
2023-05-01T06:50:05.951Z,2.4
2023-05-01T06:56:25.504Z,2.4
2023-05-01T07:02:48.856Z,1
2023-05-01T07:09:08.491Z,1
2023-05-01T07:15:31.527Z,2.1
2023-05-01T07:21:51.519Z,2.1
2023-05-01T07:28:15.337Z,1.9
2023-05-01T07:34:34.538Z,1.9
2023-05-01T07:40:57.623Z,2.3
2023-05-01T07:47:17.532Z,2.3
2023-05-01T07:53:40.537Z,1.7
2023-05-01T08:00:00.583Z,1.7
2023-05-01T08:06:23.530Z,0.9
2023-05-01T08:12:43.500Z,0.9
2023-05-01T08:19:06.571Z,1.6
2023-05-01T08:25:26.525Z,1.6
2023-05-01T08:31:49.548Z,0.9
2023-05-01T08:38:09.580Z,0.9
2023-05-01T08:44:32.504Z,2.1
2023-05-01T08:50:52.523Z,2.1
2023-05-01T08:57:15.574Z,1.7
2023-05-01T09:20:50.428Z,0.8
2023-05-01T09:27:10.498Z,0.8
2023-05-01T09:33:33.499Z,2
2023-05-01T09:39:53.566Z,2
2023-05-01T09:46:16.511Z,1
2023-05-01T09:52:36.549Z,1
2023-05-01T09:58:59.531Z,1.9
2023-05-01T10:05:19.530Z,1.9
2023-05-01T10:11:42.521Z,1.8
2023-05-01T10:18:02.735Z,1.8
2023-05-01T10:24:25.572Z,1.5
2023-05-01T10:30:45.514Z,1.5
2023-05-01T10:37:08.516Z,1.1
2023-05-01T10:43:28.529Z,1.1
2023-05-01T10:49:51.513Z,0.7
2023-05-01T10:56:11.560Z,0.7
2023-05-01T11:02:34.509Z,1.1
2023-05-01T11:08:54.547Z,1.1
2023-05-01T11:15:17.541Z,0.7
2023-05-01T11:21:37.493Z,0.7
2023-05-01T11:28:00.621Z,1.4
2023-05-01T11:34:20.610Z,1.4
2023-05-01T11:40:43.514Z,0.8
2023-05-01T11:47:03.524Z,0.8
2023-05-01T11:53:26.507Z,1
2023-05-01T11:59:46.550Z,1
2023-05-01T12:06:09.529Z,2.1
2023-05-01T12:12:29.699Z,2.1
2023-05-01T12:18:52.598Z,1.5
2023-05-01T12:25:12.482Z,1.5
2023-05-01T12:31:35.645Z,1.6
2023-05-01T12:37:55.485Z,1.6
2023-05-01T12:44:18.524Z,1
2023-05-01T12:50:38.571Z,1
2023-05-01T12:57:01.481Z,1.1
2023-05-01T13:03:21.617Z,1.1
2023-05-01T13:09:44.521Z,0.6
2023-05-01T13:16:04.523Z,0.6
2023-05-01T13:22:27.507Z,0.8
2023-05-01T13:28:47.507Z,0.8
2023-05-01T13:35:10.544Z,0.6
2023-05-01T13:41:30.483Z,0.6
2023-05-01T13:47:53.592Z,1.7
2023-05-01T13:54:13.481Z,1.7
2023-05-01T14:00:36.496Z,1.2
2023-05-01T14:06:56.576Z,1.2
2023-05-01T14:13:19.470Z,1.6
2023-05-01T14:19:39.489Z,1.6
2023-05-01T14:26:02.538Z,0.4
2023-05-01T14:32:22.489Z,0.4
2023-05-01T14:38:45.593Z,1.2
2023-05-01T14:45:05.536Z,1.2
2023-05-01T15:07:36.562Z,3
2023-05-01T15:13:56.551Z,3
2023-05-01T15:20:19.560Z,3
2023-05-01T15:26:39.523Z,3
2023-05-01T15:33:02.607Z,2
2023-05-01T15:39:22.582Z,2
2023-05-01T15:45:45.712Z,0.8
2023-05-01T15:52:05.557Z,0.8
2023-05-01T15:58:28.564Z,1.8
2023-05-01T16:04:48.529Z,1.8
2023-05-01T16:11:11.620Z,2.2
2023-05-01T16:17:31.563Z,2.2
2023-05-01T16:23:54.868Z,3.6
2023-05-01T16:30:14.598Z,3.6
2023-05-01T16:36:37.664Z,2.7
2023-05-01T16:42:57.693Z,2.7
2023-05-01T16:49:20.957Z,2.8
2023-05-01T16:55:40.535Z,2.8
2023-05-01T17:02:03.597Z,4.6
2023-05-01T17:08:23.503Z,4.6
2023-05-01T17:14:46.633Z,3.6
2023-05-01T17:21:06.519Z,3.6
2023-05-01T17:27:29.555Z,4.2
2023-05-01T17:33:49.659Z,4.2
2023-05-01T17:40:12.517Z,2.8
2023-05-01T17:46:32.582Z,2.8
2023-05-01T17:52:55.512Z,1
2023-05-01T17:59:15.548Z,1
2023-05-01T18:05:38.487Z,3.1
2023-05-01T18:11:58.476Z,3.1
2023-05-01T18:18:21.567Z,2.3
2023-05-01T18:24:41.506Z,2.3
2023-05-01T18:31:04.593Z,3
2023-05-01T18:37:24.534Z,3
2023-05-01T18:43:47.537Z,1.8
2023-05-01T18:50:07.513Z,1.8
2023-05-01T18:56:30.522Z,3
2023-05-01T19:02:50.554Z,3
2023-05-01T19:09:13.501Z,3
2023-05-01T19:15:33.517Z,3
2023-05-01T19:21:56.522Z,4
2023-05-01T19:28:16.484Z,4
2023-05-01T19:34:39.556Z,3.5
2023-05-01T19:40:59.523Z,3.5
2023-05-01T19:47:22.511Z,2.3
2023-05-01T19:53:42.575Z,2.3
2023-05-01T20:00:05.513Z,1.6
2023-05-01T20:06:25.553Z,1.6
2023-05-01T20:22:18.650Z,3.2
2023-05-01T20:28:38.556Z,3.2
2023-05-01T20:35:01.474Z,4.4
2023-05-01T20:41:21.604Z,4.4
2023-05-01T20:47:44.577Z,4.2
2023-05-01T20:54:04.500Z,4.2
2023-05-01T21:00:27.575Z,4.2
2023-05-01T21:06:47.569Z,4.2
2023-05-01T21:13:10.567Z,3.7
2023-05-01T21:19:30.490Z,3.7
2023-05-01T21:25:53.498Z,5.2
2023-05-01T21:32:13.543Z,5.2
2023-05-01T21:38:36.519Z,6.8
2023-05-01T21:44:56.565Z,6.8
2023-05-01T21:51:19.499Z,5.3
2023-05-01T21:57:39.620Z,5.3
2023-05-01T22:21:57.490Z,14.4
2023-05-01T22:28:17.992Z,14.4
2023-05-01T22:34:40.507Z,14.4
2023-05-01T22:41:00.563Z,14.4
2023-05-01T22:47:23.544Z,5.8
2023-05-01T22:53:43.573Z,5.8
2023-05-01T23:00:06.534Z,7.2
2023-05-01T23:06:26.601Z,7.2
2023-05-01T23:12:49.492Z,5
2023-05-01T23:19:09.589Z,5
2023-05-01T23:25:32.487Z,6
2023-05-01T23:31:52.674Z,6
2023-05-01T23:38:15.578Z,6
2023-05-01T23:44:35.553Z,6
2023-05-01T23:50:58.504Z,6
2023-05-01T23:57:18.565Z,6
